createdAt,value
2023-03-25T00:02:05.334Z,28.90
2023-03-25T00:04:35.321Z,28.80
2023-03-25T00:07:04.511Z,28.80
2023-03-25T00:09:34.923Z,28.80
2023-03-25T00:12:04.149Z,28.80
2023-03-25T00:14:34.020Z,28.80
2023-03-25T00:17:03.090Z,28.70
2023-03-25T00:19:32.103Z,28.80
2023-03-25T00:22:01.609Z,28.80
2023-03-25T00:24:30.764Z,28.70
2023-03-25T00:27:01.262Z,28.80
2023-03-25T00:29:30.244Z,28.80
2023-03-25T00:31:59.291Z,28.70
2023-03-25T00:34:28.208Z,28.70
2023-03-25T00:36:57.655Z,28.70
2023-03-25T00:39:26.447Z,28.70
2023-03-25T00:41:57.254Z,28.70
2023-03-25T00:44:27.391Z,28.70
2023-03-25T00:46:56.516Z,28.70
2023-03-25T00:49:25.523Z,28.70
2023-03-25T00:51:54.568Z,28.60
2023-03-25T00:54:23.473Z,28.70
2023-03-25T00:56:54.285Z,28.60
2023-03-25T00:59:23.375Z,28.70
2023-03-25T01:01:56.293Z,28.70
2023-03-25T01:04:25.274Z,28.60
2023-03-25T01:06:55.160Z,28.60
2023-03-25T01:09:24.128Z,28.60
2023-03-25T01:11:53.160Z,28.60
2023-03-25T01:14:27.367Z,28.50
2023-03-25T01:17:00.457Z,28.60
2023-03-25T01:19:32.157Z,28.60
2023-03-25T01:22:01.281Z,28.50
2023-03-25T01:24:30.319Z,28.50
2023-03-25T01:26:59.383Z,28.50
2023-03-25T01:29:30.333Z,28.50
2023-03-25T01:32:01.297Z,28.50
2023-03-25T01:34:30.082Z,28.50
2023-03-25T01:36:59.560Z,28.50
2023-03-25T01:39:28.342Z,28.40
2023-03-25T01:46:29.405Z,28.40
2023-03-25T01:49:04.493Z,28.30
2023-03-25T01:51:39.527Z,28.30
2023-03-25T01:54:08.683Z,28.30
2023-03-25T01:56:42.833Z,28.30
2023-03-25T01:59:12.154Z,28.40
2023-03-25T02:01:41.923Z,28.30
2023-03-25T02:04:13.072Z,28.20
2023-03-25T02:06:46.716Z,28.20
2023-03-25T02:09:21.236Z,28.20
2023-03-25T02:11:50.622Z,28.20
2023-03-25T02:14:25.323Z,28.10
2023-03-25T02:17:10.251Z,28.10
2023-03-25T02:20:37.432Z,28.10
2023-03-25T02:23:43.887Z,28.10
2023-03-25T02:26:50.071Z,28.00
2023-03-25T02:29:40.787Z,28.00
2023-03-25T02:32:35.929Z,28.00
2023-03-25T02:35:41.597Z,28.00
2023-03-25T02:38:30.759Z,27.90
2023-03-25T02:41:08.056Z,27.90
2023-03-25T02:43:46.537Z,27.90
2023-03-25T02:46:19.635Z,27.90
2023-03-25T02:48:57.361Z,27.90
2023-03-25T02:51:32.865Z,27.80
2023-03-25T02:54:09.701Z,27.80
2023-03-25T02:56:44.187Z,27.80
2023-03-25T02:59:15.283Z,27.80
2023-03-25T03:01:45.609Z,27.80
2023-03-25T03:04:14.525Z,27.80
2023-03-25T03:06:45.158Z,27.80
2023-03-25T03:09:38.047Z,27.80
2023-03-25T03:12:29.268Z,27.70
2023-03-25T03:15:21.785Z,27.70
2023-03-25T03:18:15.721Z,27.70
2023-03-25T03:20:56.841Z,27.70
2023-03-25T03:23:33.808Z,27.60
2023-03-25T03:26:12.161Z,27.60
2023-03-25T03:28:48.125Z,27.60
2023-03-25T03:31:48.655Z,27.60
2023-03-25T03:34:24.410Z,27.50
2023-03-25T03:36:58.273Z,27.50
2023-03-25T03:39:33.910Z,27.50
2023-03-25T03:42:16.915Z,27.50
2023-03-25T03:44:54.125Z,27.40
2023-03-25T03:47:29.925Z,27.40
2023-03-25T03:50:06.586Z,27.40
2023-03-25T03:52:45.240Z,27.30
2023-03-25T03:55:22.160Z,27.30
2023-03-25T03:58:00.571Z,27.30
2023-03-25T04:00:39.400Z,27.20
2023-03-25T04:03:16.170Z,27.20
2023-03-25T04:05:56.423Z,27.20
2023-03-25T04:08:33.414Z,27.20
2023-03-25T04:11:09.761Z,27.20
2023-03-25T04:13:45.743Z,27.20
2023-03-25T04:16:15.671Z,27.10
2023-03-25T04:18:48.011Z,27.10
2023-03-25T04:21:17.719Z,27.10
2023-03-25T04:23:46.500Z,27.10
2023-03-25T04:26:15.574Z,27.10
2023-03-25T04:28:46.429Z,27.10
2023-03-25T04:31:17.760Z,27.00
2023-03-25T04:33:48.635Z,27.00
2023-03-25T04:36:17.813Z,27.00
2023-03-25T04:38:46.834Z,27.00
2023-03-25T04:41:16.058Z,27.00
2023-03-25T04:43:46.185Z,27.00
2023-03-25T04:46:17.990Z,27.00
2023-03-25T04:48:47.899Z,27.00
2023-03-25T04:51:17.120Z,27.10
2023-03-25T04:53:45.823Z,27.10
2023-03-25T04:56:19.746Z,27.10
2023-03-25T04:58:49.908Z,27.00
2023-03-25T05:01:31.012Z,27.10
2023-03-25T05:04:05.888Z,27.10
2023-03-25T05:06:38.520Z,27.10
2023-03-25T05:09:11.660Z,27.10
2023-03-25T05:11:41.946Z,27.10
2023-03-25T05:14:14.578Z,27.10
2023-03-25T05:16:44.737Z,27.10
2023-03-25T05:19:14.995Z,27.10
2023-03-25T05:21:44.079Z,27.20
2023-03-25T05:24:14.469Z,27.20
2023-03-25T05:26:44.614Z,27.20
2023-03-25T05:29:16.600Z,27.20
2023-03-25T05:31:48.620Z,27.20
2023-03-25T05:34:17.944Z,27.20
2023-03-25T05:36:47.758Z,27.20
2023-03-25T05:39:17.230Z,27.20
2023-03-25T05:41:46.274Z,27.30
2023-03-25T05:44:19.200Z,27.30
2023-03-25T05:46:48.356Z,27.30
2023-03-25T05:49:17.068Z,27.30
2023-03-25T05:51:46.074Z,27.40
2023-03-25T05:58:46.783Z,27.40
2023-03-25T06:01:32.118Z,27.40
2023-03-25T06:04:03.461Z,27.40
2023-03-25T06:06:35.987Z,27.50
2023-03-25T06:09:05.447Z,27.50
2023-03-25T06:11:38.589Z,27.50
2023-03-25T06:14:09.334Z,27.60
2023-03-25T06:16:39.573Z,27.60
2023-03-25T06:19:09.530Z,27.60
2023-03-25T06:21:39.395Z,27.60
2023-03-25T06:24:09.695Z,27.70
2023-03-25T06:26:38.403Z,27.70
2023-03-25T06:29:08.621Z,27.80
2023-03-25T06:31:38.735Z,27.80
2023-03-25T06:34:08.034Z,27.90
2023-03-25T06:36:36.801Z,27.90
2023-03-25T06:39:06.555Z,28.00
2023-03-25T06:41:37.985Z,28.00
2023-03-25T06:44:16.850Z,28.00
2023-03-25T06:47:13.420Z,28.10
2023-03-25T06:49:46.784Z,28.20
2023-03-25T06:52:15.963Z,28.20
2023-03-25T06:54:45.018Z,28.30
2023-03-25T06:57:13.941Z,28.30
2023-03-25T06:59:42.994Z,28.40
2023-03-25T07:02:15.186Z,28.50
2023-03-25T07:04:44.289Z,28.60
2023-03-25T07:07:13.035Z,28.60
2023-03-25T07:09:42.154Z,28.60
2023-03-25T07:12:11.083Z,28.60
2023-03-25T07:14:40.181Z,28.70
2023-03-25T07:17:08.914Z,28.60
2023-03-25T07:19:39.354Z,28.60
2023-03-25T07:22:08.089Z,28.60
2023-03-25T07:24:37.095Z,28.60
2023-03-25T07:27:05.961Z,28.60
2023-03-25T07:29:37.239Z,28.80
2023-03-25T07:32:06.802Z,28.90
2023-03-25T07:34:36.371Z,28.90
2023-03-25T07:37:08.197Z,28.90
2023-03-25T07:39:37.311Z,29.00
2023-03-25T07:42:07.477Z,29.00
2023-03-25T07:44:59.233Z,28.90
2023-03-25T07:47:28.549Z,29.00
2023-03-25T07:49:57.672Z,29.00
2023-03-25T07:52:27.774Z,29.10
2023-03-25T07:54:56.825Z,29.10
2023-03-25T07:57:25.748Z,29.20
2023-03-25T07:59:54.802Z,29.20
2023-03-25T08:02:23.611Z,29.30
2023-03-25T08:04:54.528Z,29.40
2023-03-25T08:07:23.237Z,29.40
2023-03-25T08:09:53.629Z,29.40
2023-03-25T08:16:56.024Z,29.60
2023-03-25T08:19:24.892Z,29.70
2023-03-25T08:21:53.905Z,29.80
2023-03-25T08:24:24.614Z,29.90
2023-03-25T08:26:55.336Z,30.00
2023-03-25T08:29:24.717Z,30.20
2023-03-25T08:31:53.981Z,30.20
2023-03-25T08:34:28.886Z,30.30
2023-03-25T08:51:06.768Z,31.00
2023-03-25T08:53:35.579Z,31.10
2023-03-25T08:56:04.775Z,31.20
2023-03-25T08:58:33.593Z,31.30
2023-03-25T09:01:02.675Z,31.30
2023-03-25T09:03:32.804Z,31.40
2023-03-25T09:06:07.875Z,31.60
2023-03-25T09:08:38.025Z,31.70
2023-03-25T09:11:08.059Z,31.80
2023-03-25T09:13:36.777Z,32.00
2023-03-25T09:16:06.914Z,32.10
2023-03-25T09:18:36.799Z,32.30
2023-03-25T09:21:08.016Z,32.40
2023-03-25T09:23:37.258Z,32.50
2023-03-25T09:26:07.298Z,32.50
2023-03-25T09:28:36.134Z,32.50
2023-03-25T09:31:05.918Z,32.50
2023-03-25T09:33:34.877Z,32.40
2023-03-25T09:36:04.276Z,32.40
2023-03-25T09:48:10.988Z,32.20
2023-03-25T09:55:21.813Z,32.00
2023-03-25T09:57:57.733Z,31.90
2023-03-25T10:00:27.639Z,31.80
2023-03-25T10:03:14.321Z,31.80
2023-03-25T10:06:13.272Z,31.80
2023-03-25T10:09:03.755Z,31.80
2023-03-25T10:11:45.073Z,31.70
2023-03-25T10:14:22.770Z,31.70
2023-03-25T10:17:10.841Z,31.70
2023-03-25T10:20:01.493Z,31.80
2023-03-25T10:22:41.148Z,31.90
2023-03-25T10:25:19.714Z,32.10
2023-03-25T10:27:53.765Z,32.30
2023-03-25T10:30:27.587Z,32.60
2023-03-25T10:32:59.041Z,32.80
2023-03-25T10:35:32.566Z,33.00
2023-03-25T10:38:14.520Z,33.10
2023-03-25T10:40:50.268Z,33.10
2023-03-25T10:43:28.357Z,33.30
2023-03-25T10:46:04.567Z,33.40
2023-03-25T10:48:34.956Z,33.60
2023-03-25T10:51:10.847Z,33.70
2023-03-25T10:53:43.144Z,33.90
2023-03-25T10:56:17.353Z,34.00
2023-03-25T10:58:51.744Z,33.90
2023-03-25T11:01:28.661Z,33.90
2023-03-25T11:04:01.858Z,33.70
2023-03-25T11:06:37.589Z,33.50
2023-03-25T11:09:25.750Z,33.30
2023-03-25T11:11:55.965Z,33.20
2023-03-25T11:14:27.753Z,33.00
2023-03-25T11:17:03.112Z,32.90
2023-03-25T11:19:42.927Z,33.00
2023-03-25T11:22:20.671Z,32.90
2023-03-25T11:24:54.635Z,33.00
2023-03-25T11:27:28.477Z,33.20
2023-03-25T11:30:05.224Z,33.40
2023-03-25T11:32:36.726Z,33.40
2023-03-25T11:35:17.102Z,33.40
2023-03-25T11:37:54.892Z,33.50
2023-03-25T11:44:59.602Z,33.60
2023-03-25T11:47:34.441Z,33.50
2023-03-25T11:50:03.999Z,33.40
2023-03-25T11:52:42.588Z,33.30
2023-03-25T11:55:22.594Z,33.20
2023-03-25T11:57:56.421Z,33.10
2023-03-25T12:00:37.744Z,33.00
2023-03-25T12:03:20.714Z,32.90
2023-03-25T12:06:05.436Z,32.80
2023-03-25T12:08:45.161Z,32.60
2023-03-25T12:11:21.687Z,32.60
2023-03-25T12:14:34.081Z,32.50
2023-03-25T12:17:19.552Z,32.40
2023-03-25T12:20:01.232Z,32.40
2023-03-25T12:22:54.666Z,32.40
2023-03-25T12:25:37.692Z,32.50
2023-03-25T12:28:33.497Z,32.50
2023-03-25T12:31:18.394Z,32.50
2023-03-25T12:34:04.898Z,32.50
2023-03-25T12:36:49.212Z,32.50
2023-03-25T12:39:43.987Z,32.50
2023-03-25T12:42:33.603Z,32.50
2023-03-25T12:46:45.448Z,32.50
2023-03-25T12:49:37.383Z,32.50
2023-03-25T12:52:19.052Z,32.50
2023-03-25T12:55:04.589Z,32.50
2023-03-25T12:57:58.902Z,32.40
2023-03-25T13:02:06.426Z,32.40
2023-03-25T13:04:56.075Z,32.30
2023-03-25T13:07:33.457Z,32.20
2023-03-25T13:10:14.341Z,32.00
2023-03-25T13:12:50.366Z,31.80
2023-03-25T13:15:27.687Z,31.60
2023-03-25T13:18:04.168Z,31.50
2023-03-25T13:20:42.650Z,31.40
2023-03-25T13:23:21.513Z,31.30
2023-03-25T13:25:57.678Z,31.20
2023-03-25T13:28:39.308Z,31.10
2023-03-25T13:35:48.903Z,31.00
2023-03-25T13:38:28.571Z,31.00
2023-03-25T13:41:13.006Z,30.90
2023-03-25T13:43:55.588Z,30.90
2023-03-25T13:46:33.000Z,30.90
2023-03-25T13:49:13.174Z,30.90
2023-03-25T13:51:43.636Z,30.90
2023-03-25T13:59:15.279Z,30.90
2023-03-25T14:02:13.687Z,30.90
2023-03-25T14:05:21.913Z,31.00
2023-03-25T14:08:23.989Z,31.00
2023-03-25T14:11:03.015Z,31.00
2023-03-25T14:18:06.263Z,31.20
2023-03-25T14:20:41.620Z,31.30
2023-03-25T14:23:20.076Z,31.40
2023-03-25T14:25:54.273Z,31.40
2023-03-25T14:28:37.637Z,31.40
2023-03-25T14:31:29.886Z,31.50
2023-03-25T14:34:25.465Z,31.50
2023-03-25T14:37:27.549Z,31.50
2023-03-25T14:40:02.138Z,31.50
2023-03-25T14:42:43.440Z,31.40
2023-03-25T14:46:14.479Z,31.40
2023-03-25T14:48:46.337Z,31.40
2023-03-25T14:51:41.239Z,31.30
2023-03-25T14:54:29.674Z,31.20
2023-03-25T14:57:08.029Z,31.00
2023-03-25T14:59:42.150Z,30.90
2023-03-25T15:02:18.406Z,30.70
2023-03-25T15:04:54.778Z,30.40
2023-03-25T15:07:44.293Z,30.20
2023-03-25T15:10:26.595Z,29.90
2023-03-25T15:13:06.509Z,29.70
2023-03-25T15:16:00.231Z,29.50
2023-03-25T15:19:07.247Z,29.30
2023-03-25T15:22:11.235Z,29.20
2023-03-25T15:30:09.436Z,29.00
2023-03-25T15:32:57.812Z,28.80
2023-03-25T15:35:51.895Z,28.70
2023-03-25T15:38:51.620Z,28.60
2023-03-25T15:41:55.438Z,28.60
2023-03-25T15:49:29.743Z,28.50
2023-03-25T15:53:42.873Z,28.40
2023-03-25T15:56:17.260Z,28.20
2023-03-25T15:58:56.032Z,28.20
2023-03-25T16:01:30.422Z,28.10
2023-03-25T16:04:06.986Z,28.10
2023-03-25T16:11:26.294Z,28.10
2023-03-25T16:14:12.925Z,28.10
2023-03-25T16:21:16.450Z,28.10
2023-03-25T16:23:45.523Z,28.10
2023-03-25T16:26:16.358Z,28.10
2023-03-25T16:28:46.512Z,28.10
2023-03-25T16:31:34.921Z,28.00
2023-03-25T16:34:08.333Z,28.00
2023-03-25T16:36:38.790Z,28.00
2023-03-25T16:39:14.793Z,28.00
2023-03-25T16:41:49.042Z,28.00
2023-03-25T16:44:23.600Z,27.90
2023-03-25T16:51:29.720Z,27.90
2023-03-25T16:54:00.347Z,27.90
2023-03-25T17:01:04.163Z,27.80
2023-03-25T17:03:51.619Z,27.70
2023-03-25T17:06:27.135Z,27.70
2023-03-25T17:13:40.065Z,27.70
2023-03-25T17:16:10.613Z,27.70
2023-03-25T17:18:40.635Z,27.60
2023-03-25T17:21:13.815Z,27.60
2023-03-25T17:23:47.226Z,27.50
2023-03-25T17:26:21.292Z,27.60
2023-03-25T17:29:03.293Z,27.50
2023-03-25T17:31:36.562Z,27.50
2023-03-25T17:34:09.890Z,27.40
2023-03-25T17:36:41.654Z,27.40
2023-03-25T17:39:20.927Z,27.40
2023-03-25T17:41:58.842Z,27.40
2023-03-25T17:44:36.069Z,27.30
2023-03-25T17:47:05.644Z,27.40
2023-03-25T17:49:35.695Z,27.30
2023-03-25T17:52:04.536Z,27.30
2023-03-25T17:54:33.632Z,27.30
2023-03-25T17:57:02.582Z,27.30
2023-03-25T17:59:33.130Z,27.30
2023-03-25T18:02:02.047Z,27.30
2023-03-25T18:04:31.246Z,27.30
2023-03-25T18:07:00.027Z,27.30
2023-03-25T18:09:29.008Z,27.30
2023-03-25T18:11:59.578Z,27.40
2023-03-25T18:14:29.007Z,27.40
2023-03-25T18:16:59.135Z,27.40
2023-03-25T18:19:31.953Z,27.40
2023-03-25T18:22:09.979Z,27.40
2023-03-25T18:24:48.393Z,27.40
2023-03-25T18:27:17.273Z,27.50
2023-03-25T18:29:46.422Z,27.50
2023-03-25T18:32:16.564Z,27.50
2023-03-25T18:34:46.770Z,27.50
2023-03-25T18:37:15.538Z,27.50
2023-03-25T18:39:44.588Z,27.50
2023-03-25T18:42:13.485Z,27.50
2023-03-25T18:44:42.612Z,27.50
2023-03-25T18:47:12.260Z,27.50
2023-03-25T18:49:42.654Z,27.50
2023-03-25T18:52:11.436Z,27.40
2023-03-25T18:54:41.295Z,27.40
2023-03-25T18:57:10.406Z,27.40
2023-03-25T18:59:39.510Z,27.30
2023-03-25T19:02:08.391Z,27.30
2023-03-25T19:04:39.838Z,27.30
2023-03-25T19:07:13.379Z,27.30
2023-03-25T19:14:14.673Z,27.30
2023-03-25T19:16:54.027Z,27.30
2023-03-25T19:19:27.172Z,27.40
2023-03-25T19:26:29.216Z,27.30
2023-03-25T19:28:57.977Z,27.20
2023-03-25T19:31:29.684Z,27.20
2023-03-25T19:33:58.750Z,27.20
2023-03-25T19:36:27.827Z,27.20
2023-03-25T19:39:05.587Z,27.20
2023-03-25T19:41:42.145Z,27.20
2023-03-25T19:44:11.366Z,27.10
2023-03-25T19:46:40.666Z,27.10
2023-03-25T19:49:09.445Z,27.10
2023-03-25T19:51:38.790Z,27.10
2023-03-25T19:54:09.970Z,27.10
2023-03-25T19:56:41.820Z,27.10
2023-03-25T19:59:11.013Z,27.10
2023-03-25T20:01:41.592Z,27.00
2023-03-25T20:04:10.719Z,27.00
2023-03-25T20:06:39.940Z,27.00
2023-03-25T20:09:10.614Z,27.00
2023-03-25T20:11:41.067Z,26.90
2023-03-25T20:14:09.866Z,26.80
2023-03-25T20:16:39.069Z,26.90
2023-03-25T20:23:39.782Z,26.70
2023-03-25T20:30:42.236Z,26.60
2023-03-25T20:37:43.850Z,26.50
2023-03-25T20:40:16.133Z,26.50
2023-03-25T20:42:48.015Z,26.50
2023-03-25T20:45:19.182Z,26.50
2023-03-25T20:47:49.678Z,26.50
2023-03-25T20:50:18.969Z,26.40
2023-03-25T20:52:48.080Z,26.40
2023-03-25T20:55:17.268Z,26.30
2023-03-25T20:57:46.276Z,26.30
2023-03-25T21:00:18.105Z,26.30
2023-03-25T21:05:18.172Z,26.20
2023-03-25T21:07:48.388Z,26.20
2023-03-25T21:10:18.032Z,26.10
2023-03-25T21:17:22.329Z,26.10
2023-03-25T21:19:53.541Z,26.00
2023-03-25T21:26:56.552Z,26.00
2023-03-25T21:29:25.292Z,26.00
2023-03-25T21:31:54.392Z,26.00
2023-03-25T21:34:23.359Z,25.90
2023-03-25T21:36:52.721Z,25.90
2023-03-25T21:39:21.488Z,25.90
2023-03-25T21:41:50.967Z,25.90
2023-03-25T21:44:21.321Z,25.90
2023-03-25T21:46:53.594Z,25.90
2023-03-25T21:49:22.656Z,25.90
2023-03-25T21:51:56.684Z,25.80
2023-03-25T21:54:26.537Z,25.80
2023-03-25T21:56:55.826Z,25.80
2023-03-25T21:59:26.213Z,25.80
2023-03-25T22:01:56.076Z,25.70
2023-03-25T22:04:24.937Z,25.70
2023-03-25T22:06:56.726Z,25.70
2023-03-25T22:09:25.462Z,25.70
2023-03-25T22:11:54.577Z,25.70
2023-03-25T22:14:23.794Z,25.70
2023-03-25T22:16:54.459Z,25.70
2023-03-25T22:19:24.657Z,25.70
2023-03-25T22:21:54.000Z,25.70
2023-03-25T22:24:22.821Z,25.70
2023-03-25T22:26:51.909Z,25.70
2023-03-25T22:29:20.906Z,25.80
2023-03-25T22:31:50.947Z,25.80
2023-03-25T22:34:21.056Z,25.90
2023-03-25T22:36:51.070Z,25.90
2023-03-25T22:39:23.206Z,25.90
2023-03-25T22:41:52.865Z,26.00
2023-03-25T22:44:22.363Z,26.00
2023-03-25T22:46:52.313Z,26.10
2023-03-25T22:49:22.897Z,26.10
2023-03-25T22:51:52.612Z,26.10
2023-03-25T22:54:21.456Z,26.20
2023-03-25T22:56:50.595Z,26.20
2023-03-25T22:59:19.378Z,26.30
2023-03-25T23:01:48.587Z,26.30
2023-03-25T23:04:17.344Z,26.30
2023-03-25T23:07:00.569Z,26.30
2023-03-25T23:09:43.891Z,26.30
2023-03-25T23:12:15.678Z,26.30
2023-03-25T23:14:50.806Z,26.30
2023-03-25T23:17:20.224Z,26.40
2023-03-25T23:19:49.134Z,26.40
2023-03-25T23:22:21.240Z,26.40
2023-03-25T23:24:50.102Z,26.40
2023-03-25T23:27:19.127Z,26.50
2023-03-25T23:29:48.125Z,26.50
2023-03-25T23:32:17.133Z,26.50
2023-03-25T23:34:46.352Z,26.50
2023-03-25T23:37:15.379Z,26.50
2023-03-25T23:39:46.352Z,26.50
2023-03-25T23:42:15.383Z,26.50
2023-03-25T23:44:44.477Z,26.50
2023-03-25T23:47:13.701Z,26.50
2023-03-25T23:49:44.231Z,26.50
2023-03-25T23:52:13.666Z,26.50
2023-03-25T23:54:44.475Z,26.50
2023-03-25T23:57:14.472Z,26.50
2023-03-25T23:59:44.168Z,26.50
